Time;durP1;ratioP1;P1;durP2;ratioP2;P2;SDS_P1;SDS_P2;PMS_P1;PMS_P2;Temp;Humidity;BMP_temperature;BMP_pressure;BME280_temperature;BME280_humidity;BME280_pressure;Samples;Min_cycle;Max_cycle;Signal;HPM_P1;HPM_P2
2022/03/21 00:01:13;;;;;;;34.27;21.93;;;;;;;4.55;47.22;97518.03;5039697;28;20576;-88
2022/03/21 00:03:39;;;;;;;25.57;15.30;;;;;;;4.51;46.41;97521.75;5038162;28;20066;-88
2022/03/21 00:06:07;;;;;;;17.83;11.00;;;;;;;4.43;46.33;97528.25;5049718;28;20032;-87
2022/03/21 00:08:33;;;;;;;17.20;11.10;;;;;;;4.38;47.13;97530.28;5036804;28;20024;-88
2022/03/21 00:10:59;;;;;;;17.97;10.00;;;;;;;4.32;46.84;97520.22;5033641;28;20028;-88
2022/03/21 00:13:26;;;;;;;14.67;8.57;;;;;;;4.35;46.58;97527.00;5039209;28;20347;-88
2022/03/21 00:15:54;;;;;;;14.40;8.53;;;;;;;4.20;47.33;97531.34;5063233;28;20059;-87
2022/03/21 00:18:20;;;;;;;14.03;8.73;;;;;;;4.17;47.75;97531.53;5066268;28;20032;-87
2022/03/21 00:20:49;;;;;;;13.73;8.33;;;;;;;4.15;47.52;97525.56;5037297;28;20101;-88
2022/03/21 00:23:15;;;;;;;13.60;8.03;;;;;;;4.09;47.91;97538.91;5034422;28;20043;-88
2022/03/21 00:25:41;;;;;;;13.40;7.77;;;;;;;4.09;48.16;97536.31;5051268;28;20037;-89
2022/03/21 00:28:14;;;;;;;14.43;8.47;;;;;;;4.08;48.23;97530.28;5047638;28;20032;-88
2022/03/21 00:30:42;;;;;;;;;;;;;;;4.03;48.10;97532.31;5033708;28;20445;-88
2022/03/21 00:33:09;;;;;;;11.83;7.93;;;;;;;4.01;48.40;97540.19;5030267;28;19995;-89
2022/03/21 00:35:35;;;;;;;11.00;7.23;;;;;;;3.96;47.75;97531.81;5043684;28;20020;-88
2022/03/21 00:38:02;;;;;;;17.20;8.73;;;;;;;3.87;48.23;97536.69;5068819;28;20040;-89
2022/03/21 00:40:29;;;;;;;12.80;8.37;;;;;;;3.75;48.72;97536.44;5040462;28;20037;-88
2022/03/21 00:42:58;;;;;;;12.47;7.60;;;;;;;3.75;48.38;97533.00;5038541;28;20040;-88
2022/03/21 00:45:25;;;;;;;15.40;8.37;;;;;;;3.81;47.87;97540.47;5043849;28;20470;-89
2022/03/21 00:47:52;;;;;;;12.20;7.23;;;;;;;3.76;48.62;97539.91;5059520;28;20025;-88
2022/03/21 00:50:24;;;;;;;12.80;7.20;;;;;;;3.70;48.71;97542.84;5047997;28;20031;-89
2022/03/21 00:52:52;;;;;;;13.53;8.40;;;;;;;3.68;48.78;97537.72;5035309;28;20094;-89
2022/03/21 00:55:20;;;;;;;13.60;7.80;;;;;;;3.63;48.55;97534.53;5043888;28;20119;-88
2022/03/21 00:57:57;;;;;;;12.30;7.70;;;;;;;3.72;47.81;97535.78;5056933;28;20155;-88
2022/03/21 01:00:25;;;;;;;13.83;7.83;;;;;;;3.62;48.39;97538.06;5039271;28;20031;-88
2022/03/21 01:02:57;;;;;;;14.40;7.70;;;;;;;3.50;48.67;97531.75;5035765;28;20455;-89
2022/03/21 01:05:23;;;;;;;11.97;7.37;;;;;;;3.56;48.67;97534.97;5031002;28;20464;-89
2022/03/21 01:07:50;;;;;;;13.97;7.77;;;;;;;3.77;47.86;97533.78;5056083;28;20466;-88
2022/03/21 01:10:18;;;;;;;13.13;7.53;;;;;;;3.64;48.55;97537.97;5049874;28;20459;-88
2022/03/21 01:12:45;;;;;;;17.60;8.20;;;;;;;3.67;48.42;97538.63;5058096;28;20453;-88
2022/03/21 01:15:16;;;;;;;13.30;7.43;;;;;;;3.57;48.98;97544.44;5039107;28;20466;-88
2022/03/21 01:17:43;;;;;;;13.37;8.07;;;;;;;3.50;49.29;97534.38;5031436;28;20466;-88
2022/03/21 01:20:10;;;;;;;14.13;8.30;;;;;;;3.53;49.61;97535.97;5046375;28;20466;-88
2022/03/21 01:23:06;;;;;;;12.63;6.97;;;;;;;3.49;49.12;97527.50;5073019;28;21598;-88
2022/03/21 01:25:32;;;;;;;14.83;7.90;;;;;;;3.43;49.38;97538.22;5054707;28;20488;-88
2022/03/21 01:27:58;;;;;;;15.93;8.33;;;;;;;3.41;49.30;97524.44;5038689;28;20451;-87
2022/03/21 01:30:24;;;;;;;13.30;8.47;;;;;;;3.45;49.11;97531.16;5051432;28;20092;-88
2022/03/21 01:32:49;;;;;;;13.23;8.07;;;;;;;3.38;49.75;97535.03;5038770;28;20044;-88
2022/03/21 01:35:17;;;;;;;18.13;9.17;;;;;;;3.41;49.60;97540.06;5047401;28;20094;-88
2022/03/21 01:37:44;;;;;;;13.50;8.17;;;;;;;3.25;50.02;97531.41;5037776;28;20036;-89
2022/03/21 01:40:10;;;;;;;14.30;8.77;;;;;;;3.21;50.54;97540.28;5061292;28;20458;-88
2022/03/21 01:42:36;;;;;;;16.17;8.70;;;;;;;3.24;50.31;97540.13;5045592;28;20481;-88
2022/03/21 01:45:05;;;;;;;12.93;7.80;;;;;;;3.36;49.93;97536.88;5036923;28;20501;-88
2022/03/21 01:47:33;;;;;;;14.03;8.20;;;;;;;3.30;49.61;97539.81;5062516;28;20458;-88
2022/03/21 01:50:03;;;;;;;14.03;8.43;;;;;;;3.27;49.45;97535.59;5037869;28;20517;-88
2022/03/21 01:52:29;;;;;;;11.90;7.37;;;;;;;3.25;49.72;97534.00;5053381;28;20545;-88
2022/03/21 01:57:43;;;;;;;14.37;9.00;;;;;;;3.06;51.28;97532.38;5054169;28;20483;-88
2022/03/21 02:00:09;;;;;;;16.57;8.90;;;;;;;3.07;50.79;97530.63;5038011;28;20620;-88
2022/03/21 02:02:45;;;;;;;14.27;7.67;;;;;;;3.12;50.38;97532.97;5056489;28;20480;-88
2022/03/21 02:05:11;;;;;;;15.53;9.07;;;;;;;3.10;50.45;97534.81;5048954;28;20516;-87
2022/03/21 02:07:44;;;;;;;11.30;7.07;;;;;;;3.04;51.05;97528.19;5043506;28;20455;-88
2022/03/21 02:10:10;;;;;;;17.05;8.30;;;;;;;2.95;52.38;97537.31;5052794;28;20036;-88
2022/03/21 02:12:55;;;;;;;12.10;7.57;;;;;;;2.87;51.35;97530.84;5046681;28;20041;-88
2022/03/21 02:15:21;;;;;;;15.03;8.27;;;;;;;2.76;52.01;97534.00;5031117;28;20501;-88
2022/03/21 02:17:47;;;;;;;16.03;8.17;;;;;;;2.75;51.78;97534.88;5055426;28;20558;-88
2022/03/21 02:20:21;;;;;;;14.93;8.20;;;;;;;2.62;52.69;97539.91;5052614;28;20059;-88
2022/03/21 02:23:07;;;;;;;12.32;7.28;;;;;;;2.56;52.61;97538.44;5037875;28;21036;-88
2022/03/21 02:25:35;;;;;;;13.33;7.40;;;;;;;2.54;52.55;97550.66;5031995;28;20055;-88
2022/03/21 02:28:21;;;;;;;14.07;8.00;;;;;;;2.48;52.80;97543.19;5059468;28;20506;-88
2022/03/21 02:30:49;;;;;;;13.50;7.97;;;;;;;2.49;53.15;97544.88;5032322;28;20503;-88
2022/03/21 02:33:18;;;;;;;16.73;8.10;;;;;;;2.48;52.79;97538.00;5035692;28;20463;-88
2022/03/21 02:35:47;;;;;;;15.33;7.17;;;;;;;2.43;53.22;97539.97;5031363;28;20502;-87
2022/03/21 02:38:15;;;;;;;15.73;9.23;;;;;;;2.39;53.28;97538.47;5048923;28;21099;-87
2022/03/21 02:40:43;;;;;;;14.00;7.73;;;;;;;2.60;52.12;97537.38;5039399;28;20470;-87
2022/03/21 02:43:09;;;;;;;15.37;8.03;;;;;;;2.62;52.24;97534.69;5039185;28;20497;-87
2022/03/21 02:46:05;;;;;;;13.93;7.67;;;;;;;2.52;52.30;97542.13;5044437;28;20455;-87
2022/03/21 02:48:31;;;;;;;13.53;7.30;;;;;;;2.51;52.36;97524.84;5038236;28;20025;-88
2022/03/21 02:51:14;;;;;;;14.37;8.07;;;;;;;2.50;52.08;97524.94;5048592;28;20489;-88
2022/03/21 02:53:41;;;;;;;13.47;7.90;;;;;;;2.51;52.15;97539.59;5055378;28;20474;-88
2022/03/21 02:56:07;;;;;;;15.67;7.87;;;;;;;2.44;52.73;97543.41;5066671;28;20980;-88
2022/03/21 02:58:33;;;;;;;13.13;7.97;;;;;;;2.41;52.49;97541.78;5058738;28;20473;-87
2022/03/21 03:01:15;;;;;;;16.20;8.17;;;;;;;2.40;52.33;97542.72;5041100;28;20029;-88
2022/03/21 03:03:42;;;;;;;11.53;6.67;;;;;;;2.43;52.76;97547.75;5050454;28;20450;-88
2022/03/21 03:06:08;;;;;;;13.50;8.20;;;;;;;2.41;52.49;97541.78;5053229;28;21088;-88
2022/03/21 03:08:42;;;;;;;13.77;8.13;;;;;;;2.38;52.71;97541.94;5047568;28;20490;-88
2022/03/21 03:11:07;;;;;;;16.75;9.18;;;;;;;2.43;52.49;97549.53;5054217;28;20467;-87
2022/03/21 03:13:38;;;;;;;13.33;8.03;;;;;;;2.53;52.22;97548.16;5035485;28;20139;-87
2022/03/21 03:16:04;;;;;;;15.70;7.73;;;;;;;2.43;52.56;97549.53;5036413;28;20029;-87
2022/03/21 03:18:30;;;;;;;15.00;8.53;;;;;;;2.25;53.46;97552.13;5045101;28;20465;-88
2022/03/21 03:21:05;;;;;;;14.07;8.33;;;;;;;2.24;53.71;97550.44;5054587;28;20474;-88
2022/03/21 03:23:32;;;;;;;18.40;8.13;;;;;;;2.27;52.62;97549.44;5065405;28;20525;-87
2022/03/21 03:26:04;;;;;;;13.27;8.40;;;;;;;2.26;52.95;97553.78;5041473;28;20809;-87
2022/03/21 03:28:33;;;;;;;9.65;5.97;;;;;;;2.21;53.20;97552.34;5039374;28;20495;-87
2022/03/21 03:31:36;;;;;;;13.47;7.63;;;;;;;2.22;53.03;97557.47;5033485;28;20041;-87
2022/03/21 03:34:02;;;;;;;12.20;7.03;;;;;;;2.22;53.32;97556.63;5033632;28;20463;-87
2022/03/21 03:36:28;;;;;;;16.83;7.60;;;;;;;2.25;52.70;97564.28;5012329;28;20475;-87
2022/03/21 03:38:54;;;;;;;15.30;8.67;;;;;;;2.21;53.06;97557.53;5018104;28;20459;-86
2022/03/21 03:45:16;;;;;;;15.10;7.97;;;;;;;2.13;53.69;97571.72;5044604;28;20032;-88
2022/03/21 03:48:02;;;;;;;13.73;8.10;;;;;;;2.13;53.67;97569.13;5017877;28;20602;-87
2022/03/21 03:50:28;;;;;;;17.30;10.00;;;;;;;2.06;54.02;97578.13;5024817;28;20483;-87
2022/03/21 03:52:55;;;;;;;12.07;8.07;;;;;;;2.02;54.13;97579.19;5014797;28;20502;-88
2022/03/21 03:55:21;;;;;;;13.73;7.93;;;;;;;1.98;54.69;97580.25;5021312;28;20559;-88
2022/03/21 03:57:48;;;;;;;17.93;8.70;;;;;;;1.96;54.78;97594.22;5024615;28;20834;-88
2022/03/21 04:00:16;;;;;;;16.10;8.17;;;;;;;1.95;54.99;97592.53;5052603;28;20167;-89
2022/03/21 04:05:29;;;;;;;17.50;9.83;;;;;;;1.88;54.91;97594.56;5028710;28;20997;-87
2022/03/21 04:07:55;;;;;;;13.67;7.43;;;;;;;1.83;54.87;97593.94;5022286;28;20535;-87
2022/03/21 04:10:21;;;;;;;14.43;8.93;;;;;;;1.80;55.34;97596.66;5038941;28;20466;-88
2022/03/21 04:12:50;;;;;;;13.20;7.90;;;;;;;1.79;54.74;97600.19;5032528;28;20451;-88
2022/03/21 04:15:17;;;;;;;14.23;7.73;;;;;;;1.71;55.26;97597.97;5023059;28;20565;-87
2022/03/21 04:17:43;;;;;;;15.70;8.70;;;;;;;1.70;55.42;97600.59;5032809;28;20534;-88
2022/03/21 04:20:09;;;;;;;14.43;8.30;;;;;;;1.77;55.05;97602.84;5020164;28;20455;-88
2022/03/21 04:22:36;;;;;;;15.70;8.53;;;;;;;1.69;55.12;97598.94;5044547;28;20037;-88
2022/03/21 04:25:07;;;;;;;14.23;8.23;;;;;;;1.54;55.99;97603.06;5024280;28;20471;-87
2022/03/21 04:27:33;;;;;;;14.43;7.77;;;;;;;1.48;56.05;97604.19;5075639;28;20808;-87
2022/03/21 04:30:03;;;;;;;13.60;8.17;;;;;;;1.46;56.66;97606.00;5059746;28;20698;-88
2022/03/21 04:32:32;;;;;;;14.03;7.60;;;;;;;1.35;57.31;97614.28;5061624;28;20473;-87
2022/03/21 04:34:58;;;;;;;15.00;8.13;;;;;;;1.36;57.70;97615.09;5046080;28;20462;-87
2022/03/21 04:37:27;;;;;;;13.03;7.73;;;;;;;1.24;58.26;97628.59;5065151;28;20636;-88
2022/03/21 04:39:53;;;;;;;15.50;7.70;;;;;;;1.29;58.10;97622.31;5040961;28;20446;-88
2022/03/21 04:42:22;;;;;;;15.90;8.10;;;;;;;1.24;57.72;97629.47;5077484;28;20511;-88
2022/03/21 04:44:50;;;;;;;14.13;8.37;;;;;;;1.20;58.26;97635.66;5056866;28;20993;-88
2022/03/21 04:47:17;;;;;;;15.13;9.60;;;;;;;1.23;58.36;97626.91;5056208;28;20480;-88
2022/03/21 04:49:44;;;;;;;14.13;8.50;;;;;;;1.15;58.74;97638.47;5039646;28;20462;-88
2022/03/21 04:52:10;;;;;;;14.43;8.10;;;;;;;1.10;58.96;97636.97;5075958;28;20457;-88
2022/03/21 04:54:45;;;;;;;14.93;8.13;;;;;;;1.11;58.40;97631.75;5055697;28;20462;-88
2022/03/21 04:57:12;;;;;;;15.47;8.40;;;;;;;1.00;59.51;97638.28;5028443;28;20515;-88
2022/03/21 04:59:44;;;;;;;15.70;8.60;;;;;;;1.01;59.98;97633.06;5041887;28;20672;-88
2022/03/21 05:02:11;;;;;;;16.10;8.73;;;;;;;0.96;59.64;97639.31;5036020;28;20470;-88
2022/03/21 05:04:37;;;;;;;16.10;8.80;;;;;;;0.93;60.29;97635.09;5071251;28;20094;-88
2022/03/21 05:07:06;;;;;;;29.20;17.73;;;;;;;1.03;60.04;97640.75;5039439;28;20545;-89
2022/03/21 05:09:32;;;;;;;25.63;17.27;;;;;;;0.99;60.28;97640.03;5054377;28;20038;-88
2022/03/21 05:12:02;;;;;;;41.77;25.53;;;;;;;1.04;60.18;97637.22;5060878;28;20490;-88
2022/03/21 05:14:27;;;;;;;42.97;25.57;;;;;;;1.05;60.41;97631.16;5036708;28;20566;-88
2022/03/21 05:16:53;;;;;;;32.90;20.67;;;;;;;1.04;60.13;97632.91;5053129;28;20470;-88
2022/03/21 05:19:19;;;;;;;24.07;15.47;;;;;;;1.10;59.69;97629.19;5059484;28;20039;-88
2022/03/21 05:21:45;;;;;;;18.47;11.27;;;;;;;1.11;59.45;97631.75;5056770;28;20032;-88
2022/03/21 05:32:26;;;;;;;14.97;9.17;;;;;;;0.89;60.82;97624.03;5054915;28;21212;-88
2022/03/21 05:37:39;;;;;;;15.50;9.17;;;;;;;1.10;58.53;97626.59;5051289;28;20482;-87
2022/03/21 05:42:52;;;;;;;14.30;8.57;;;;;;;1.07;59.46;97627.56;5053829;28;20521;-87
2022/03/21 05:45:20;;;;;;;13.13;8.47;;;;;;;1.09;59.24;97630.97;5049696;28;20478;-88
2022/03/21 05:50:40;;;;;;;13.60;8.30;;;;;;;1.14;59.16;97644.56;5060424;28;20482;-89
2022/03/21 05:53:08;;;;;;;15.47;10.03;;;;;;;1.10;59.94;97642.16;5039321;28;20497;-89
2022/03/21 05:55:35;;;;;;;14.67;8.60;;;;;;;1.04;60.83;97643.28;5057682;28;20470;-89
2022/03/21 05:58:01;;;;;;;12.07;7.93;;;;;;;1.10;61.15;97648.19;5057422;28;20485;-89
2022/03/21 06:00:27;;;;;;;14.70;8.73;;;;;;;1.03;61.74;97657.13;5050754;28;20502;-89
2022/03/21 06:02:53;;;;;;;15.30;8.30;;;;;;;0.93;61.08;97661.00;5059344;28;20446;-87
2022/03/21 06:05:31;;;;;;;13.17;7.97;;;;;;;1.08;60.81;97652.59;5046261;28;20516;-87
2022/03/21 06:07:58;;;;;;;16.33;8.73;;;;;;;1.15;60.80;97651.44;5058524;28;20472;-87
2022/03/21 06:10:25;;;;;;;17.07;8.60;;;;;;;1.19;60.68;97654.72;5077416;28;20451;-87
2022/03/21 06:12:51;;;;;;;14.47;8.73;;;;;;;1.41;59.55;97649.44;5046997;28;20473;-88
2022/03/21 06:15:17;;;;;;;18.83;10.50;;;;;;;1.46;59.87;97649.22;5040995;28;20455;-88
2022/03/21 06:17:43;;;;;;;14.33;8.67;;;;;;;1.41;60.17;97650.28;5040388;28;20033;-88
2022/03/21 06:20:16;;;;;;;17.60;9.37;;;;;;;1.51;60.34;97653.31;5042805;28;20455;-88
2022/03/21 06:22:46;;;;;;;14.45;7.80;;;;;;;1.51;60.04;97658.50;5042099;28;20499;-88
2022/03/21 06:25:12;;;;;;;16.30;8.57;;;;;;;1.61;59.57;97658.91;5040767;28;20041;-88
2022/03/21 06:27:44;;;;;;;17.07;9.60;;;;;;;1.73;58.78;97662.72;5047232;28;20463;-88
2022/03/21 06:30:11;;;;;;;18.47;9.10;;;;;;;1.75;58.20;97661.75;5025325;28;20467;-88
2022/03/21 06:32:39;;;;;;;18.07;9.10;;;;;;;2.31;57.46;97670.38;5007320;28;20479;-86
2022/03/21 06:35:09;;;;;;;16.93;9.30;;;;;;;2.27;58.14;97669.69;5010273;28;20467;-81
2022/03/21 06:37:36;;;;;;;16.87;9.13;;;;;;;2.36;56.44;97668.41;5014203;28;20796;-82
2022/03/21 06:40:02;;;;;;;15.37;8.80;;;;;;;2.37;57.06;97667.50;5020769;28;20451;-82
2022/03/21 06:42:28;;;;;;;18.17;9.20;;;;;;;2.28;56.57;97670.50;5027374;28;20463;-82
2022/03/21 06:44:54;;;;;;;16.50;9.80;;;;;;;2.41;56.17;97671.59;5013200;28;20997;-80
2022/03/21 06:47:20;;;;;;;17.17;9.53;;;;;;;2.62;56.40;97668.91;5009503;28;20033;-82
2022/03/21 06:49:47;;;;;;;16.27;9.10;;;;;;;2.96;54.85;97662.88;5002651;28;20573;-81
2022/03/21 06:52:13;;;;;;;16.97;9.40;;;;;;;3.05;54.94;97668.47;5013656;28;20458;-81
2022/03/21 06:55:00;;;;;;;16.97;9.13;;;;;;;2.76;55.71;97675.09;5016627;28;20795;-82
2022/03/21 06:57:39;;;;;;;17.93;11.07;;;;;;;3.18;55.34;97660.03;5008220;28;20049;-82
2022/03/21 07:00:07;;;;;;;17.50;9.97;;;;;;;3.36;54.93;97655.66;4999146;28;20520;-82
2022/03/21 07:02:34;;;;;;;16.30;9.70;;;;;;;3.57;54.31;97656.28;5018099;28;20472;-82
2022/03/21 07:05:14;;;;;;;17.33;10.13;;;;;;;4.17;52.04;97649.53;5028019;28;20783;-83
2022/03/21 07:07:58;;;;;;;18.83;9.23;;;;;;;4.39;51.86;97658.72;5038347;28;20436;-82
2022/03/21 07:10:25;;;;;;;14.68;9.07;;;;;;;4.54;51.56;97655.28;4999701;28;21013;-82
2022/03/21 07:12:57;;;;;;;14.33;9.07;;;;;;;4.57;50.64;97655.09;5007896;28;20525;-81
2022/03/21 07:15:22;;;;;;;15.00;9.67;;;;;;;5.06;50.55;97654.84;5012117;28;20846;-81
2022/03/21 07:17:49;;;;;;;15.93;9.10;;;;;;;5.15;50.11;97659.53;5015365;28;20460;-81
2022/03/21 07:20:15;;;;;;;17.07;9.23;;;;;;;4.60;50.95;97660.16;5009588;28;20437;-81
2022/03/21 07:22:42;;;;;;;17.83;9.20;;;;;;;4.62;51.56;97660.03;5017001;28;20535;-81
2022/03/21 07:25:08;;;;;;;18.47;9.67;;;;;;;4.77;51.67;97661.78;5028069;28;20028;-81
2022/03/21 07:27:34;;;;;;;15.77;9.53;;;;;;;5.33;50.09;97661.97;5049494;28;20528;-81
2022/03/21 07:30:00;;;;;;;17.83;9.50;;;;;;;5.65;48.09;97662.66;5025311;28;20448;-82
2022/03/21 07:32:35;;;;;;;16.07;9.23;;;;;;;5.60;48.55;97667.31;5021323;28;20047;-82
2022/03/21 07:35:01;;;;;;;17.60;9.80;;;;;;;5.65;49.25;97660.88;5028586;28;20037;-82
2022/03/21 07:37:27;;;;;;;13.87;8.67;;;;;;;6.20;47.46;97666.25;5035693;28;20084;-82
2022/03/21 07:39:53;;;;;;;13.60;8.97;;;;;;;6.22;46.24;97662.63;5028049;28;20034;-82
2022/03/21 07:42:21;;;;;;;15.83;9.33;;;;;;;6.65;45.89;97665.09;5028251;28;20068;-84
2022/03/21 07:47:37;;;;;;;13.97;8.00;;;;;;;6.37;44.75;97666.00;5032826;28;20111;-80
2022/03/21 07:50:05;;;;;;;14.07;9.17;;;;;;;6.12;46.39;97671.97;5048367;28;20033;-80
2022/03/21 07:52:31;;;;;;;12.53;8.50;;;;;;;6.63;45.79;97668.75;5036934;28;20031;-80
2022/03/21 07:54:57;;;;;;;12.33;8.43;;;;;;;6.84;44.76;97670.81;5034352;28;20032;-80
2022/03/21 07:57:25;;;;;;;12.57;8.03;;;;;;;6.61;43.35;97672.28;5019629;28;20091;-80
2022/03/21 07:59:56;;;;;;;13.77;7.50;;;;;;;6.44;43.58;97679.53;5022862;28;20060;-80
2022/03/21 08:02:25;;;;;;;14.83;8.93;;;;;;;6.78;43.77;97675.59;5029442;28;20098;-81
2022/03/21 08:04:51;;;;;;;12.40;7.83;;;;;;;6.06;44.53;97677.56;5056750;28;20043;-81
2022/03/21 08:07:17;;;;;;;12.67;8.23;;;;;;;7.00;43.66;97677.63;5034187;28;20029;-80
2022/03/21 08:09:43;;;;;;;13.43;8.63;;;;;;;7.26;44.09;97679.34;5035020;28;20044;-80
2022/03/21 08:12:10;;;;;;;16.67;9.67;;;;;;;7.21;43.21;97678.81;5053082;28;20028;-81
2022/03/21 08:14:36;;;;;;;13.77;8.97;;;;;;;7.78;43.28;97673.16;5036181;28;20028;-81
2022/03/21 08:17:09;;;;;;;16.57;9.10;;;;;;;7.74;42.70;97682.16;5025862;28;20025;-80
2022/03/21 08:19:36;;;;;;;14.00;8.57;;;;;;;7.49;43.10;97676.94;5035123;28;20051;-81
2022/03/21 08:22:07;;;;;;;14.93;8.73;;;;;;;7.85;43.03;97680.59;5028036;28;20723;-81
2022/03/21 08:24:35;;;;;;;13.73;8.50;;;;;;;7.96;42.94;97678.91;5018395;28;20056;-81
2022/03/21 08:27:02;;;;;;;16.27;8.90;;;;;;;8.03;43.40;97679.31;5018866;28;20028;-80
2022/03/21 08:29:28;;;;;;;14.93;9.97;;;;;;;8.84;41.72;97670.03;5021789;28;20033;-80
2022/03/21 08:31:54;;;;;;;16.23;9.77;;;;;;;9.11;40.86;97670.59;5035966;28;20403;-80
2022/03/21 08:34:19;;;;;;;14.30;8.63;;;;;;;9.76;39.21;97677.06;5034048;28;20029;-81
2022/03/21 08:36:45;;;;;;;14.50;9.50;;;;;;;9.59;38.89;97675.72;5034748;28;20784;-81
2022/03/21 08:39:14;;;;;;;17.83;9.40;;;;;;;9.68;39.83;97668.91;5018588;28;20029;-80
2022/03/21 08:41:40;;;;;;;14.53;9.93;;;;;;;9.33;41.16;97669.00;5015879;28;20432;-80
2022/03/21 08:44:07;;;;;;;16.67;10.03;;;;;;;9.24;40.31;97670.50;5029499;28;20043;-80
2022/03/21 08:46:32;;;;;;;15.93;9.00;;;;;;;9.42;39.80;97669.13;5003926;28;20025;-81
2022/03/21 08:51:43;;;;;;;14.87;9.10;;;;;;;8.68;42.42;97668.50;5022389;28;20037;-81
2022/03/21 08:54:11;;;;;;;13.47;9.33;;;;;;;9.20;41.81;97669.91;5014916;28;20034;-81
2022/03/21 08:56:36;;;;;;;15.03;9.53;;;;;;;8.82;41.67;97675.41;5031624;28;20472;-81
2022/03/21 08:59:02;;;;;;;15.17;8.67;;;;;;;8.53;41.94;97682.75;5020036;28;20024;-81
2022/03/21 09:01:28;;;;;;;20.30;12.43;;;;;;;8.81;42.38;97672.88;5031802;28;20391;-81
2022/03/21 09:04:03;;;;;;;18.57;11.33;;;;;;;8.19;42.71;97682.53;5032513;28;20064;-81
2022/03/21 09:06:29;;;;;;;14.93;10.23;;;;;;;9.14;41.37;97670.38;5010933;28;20030;-81
2022/03/21 09:08:56;;;;;;;12.13;9.00;;;;;;;9.50;40.60;97662.47;5014422;28;20052;-80
2022/03/21 09:11:22;;;;;;;16.23;9.97;;;;;;;9.56;40.13;97665.44;5033662;28;20108;-83
2022/03/21 09:13:48;;;;;;;18.73;9.87;;;;;;;10.36;39.37;97667.97;5017598;28;20036;-83
2022/03/21 09:16:30;;;;;;;13.23;8.30;;;;;;;10.62;38.50;97659.75;5025074;28;20414;-83
2022/03/21 09:19:06;;;;;;;13.83;9.10;;;;;;;10.83;38.31;97659.78;5033039;28;20614;-83
2022/03/21 09:21:34;;;;;;;20.00;10.30;;;;;;;10.30;38.86;97657.94;5033671;28;20033;-83
2022/03/21 09:24:01;;;;;;;13.77;9.20;;;;;;;10.62;37.92;97659.75;5036140;28;20400;-83
2022/03/21 09:26:30;;;;;;;12.97;8.97;;;;;;;10.27;38.50;97668.69;5040544;28;20086;-83
2022/03/21 09:29:03;;;;;;;16.10;8.80;;;;;;;10.35;39.40;97668.91;5061238;28;20033;-83
2022/03/21 09:31:29;;;;;;;14.47;8.80;;;;;;;10.52;39.38;97667.53;5014551;28;20052;-82
2022/03/21 09:33:59;;;;;;;15.30;9.13;;;;;;;11.43;36.64;97658.28;5030643;28;20036;-83
2022/03/21 09:36:26;;;;;;;15.03;9.43;;;;;;;11.59;37.75;97660.47;5031320;28;20044;-83
2022/03/21 09:38:52;;;;;;;12.67;8.90;;;;;;;11.42;37.00;97655.78;5052889;28;20060;-83
2022/03/21 09:41:23;;;;;;;19.80;12.57;;;;;;;11.84;36.88;97653.97;5017989;28;20031;-83
2022/03/21 09:43:51;;;;;;;13.73;10.00;;;;;;;10.90;38.09;97663.59;5048841;28;20121;-83
2022/03/21 09:46:24;;;;;;;19.07;10.23;;;;;;;10.98;37.82;97663.81;5030725;28;20024;-83
2022/03/21 09:48:53;;;;;;;12.52;9.38;;;;;;;12.07;36.21;97654.59;5018043;28;20033;-84
2022/03/21 09:51:25;;;;;;;16.03;10.67;;;;;;;12.44;36.24;97659.25;5046325;28;20029;-83
2022/03/21 09:53:51;;;;;;;15.80;9.17;;;;;;;12.68;34.23;97653.63;5022597;28;20881;-83
2022/03/21 09:56:22;;;;;;;15.03;9.33;;;;;;;12.89;35.22;97649.03;5018531;28;20119;-82
2022/03/21 09:58:48;;;;;;;14.13;9.50;;;;;;;12.56;35.56;97650.28;5043331;28;20039;-83
2022/03/21 10:01:16;;;;;;;15.83;10.10;;;;;;;12.78;35.62;97654.47;5014677;28;20074;-83
2022/03/21 10:03:42;;;;;;;16.53;10.40;;;;;;;12.49;34.91;97651.78;5041393;28;20029;-83
2022/03/21 10:06:35;;;;;;;14.63;10.47;;;;;;;13.03;34.59;97646.97;5045951;28;20110;-82
2022/03/21 10:09:18;;;;;;;14.80;9.53;;;;;;;13.06;34.35;97641.41;5017804;28;20040;-83
2022/03/21 10:11:55;;;;;;;16.77;11.20;;;;;;;13.67;33.96;97639.22;5029571;28;20060;-82
2022/03/21 10:14:37;;;;;;;14.90;9.47;;;;;;;13.89;33.53;97635.38;5016951;28;20131;-84
2022/03/21 10:17:20;;;;;;;13.13;9.23;;;;;;;14.07;32.16;97638.06;5034811;28;20044;-84
2022/03/21 10:19:52;;;;;;;12.37;9.33;;;;;;;13.50;33.19;97639.13;5033315;28;20033;-85
2022/03/21 10:22:36;;;;;;;14.67;9.10;;;;;;;13.50;32.28;97639.13;5035899;28;20506;-85
2022/03/21 10:25:12;;;;;;;14.57;9.50;;;;;;;13.67;33.07;97641.03;5037616;28;20512;-84
2022/03/21 10:27:40;;;;;;;12.67;9.47;;;;;;;13.83;32.76;97635.97;5039679;28;20124;-84
2022/03/21 10:30:15;;;;;;;16.33;10.30;;;;;;;14.27;32.98;97646.75;5041414;28;20059;-84
2022/03/21 10:33:23;;;;;;;15.07;11.27;;;;;;;14.70;31.93;97639.16;5044246;28;20044;-84
2022/03/21 10:35:48;;;;;;;13.43;9.47;;;;;;;14.67;32.03;97639.44;5030492;28;20120;-84
2022/03/21 10:38:29;;;;;;;11.97;9.03;;;;;;;14.30;32.73;97638.53;5045979;28;20115;-84
2022/03/21 10:40:55;;;;;;;14.47;9.83;;;;;;;14.10;32.90;97643.06;5052602;28;20032;-84
2022/03/21 10:43:28;;;;;;;13.97;10.07;;;;;;;15.24;31.76;97642.59;5048199;28;20482;-84
2022/03/21 10:45:54;;;;;;;14.52;10.15;;;;;;;14.35;33.37;97641.56;5044337;28;20131;-84
2022/03/21 10:48:32;;;;;;;13.23;9.53;;;;;;;14.16;33.84;97641.66;5051600;28;20052;-84
2022/03/21 10:51:01;;;;;;;15.43;9.67;;;;;;;13.61;34.08;97637.13;5053337;28;20032;-84
2022/03/21 10:53:38;;;;;;;14.53;9.27;;;;;;;14.95;33.11;97633.06;5039003;28;20487;-84
2022/03/21 10:56:09;;;;;;;14.27;9.67;;;;;;;15.13;33.21;97635.72;5035901;28;20499;-84
2022/03/21 10:58:39;;;;;;;14.67;10.00;;;;;;;13.73;33.08;97643.09;5036433;28;20066;-83
2022/03/21 11:01:41;;;;;;;12.57;9.27;;;;;;;13.92;33.12;97639.56;5042114;28;20787;-84
2022/03/21 11:04:08;;;;;;;13.97;10.20;;;;;;;13.84;33.58;97634.16;5042729;28;20076;-84
2022/03/21 11:06:34;;;;;;;15.43;9.33;;;;;;;14.03;33.24;97635.88;5058607;28;20082;-83
2022/03/21 11:09:07;;;;;;;14.37;9.87;;;;;;;14.65;33.13;97628.16;5067291;28;20028;-83
2022/03/21 11:11:34;;;;;;;14.17;9.50;;;;;;;14.80;32.45;97632.78;5072874;28;20043;-84
2022/03/21 11:14:13;;;;;;;14.87;9.87;;;;;;;15.68;31.55;97622.19;5076292;28;20036;-84
2022/03/21 11:16:39;;;;;;;15.03;10.50;;;;;;;15.68;31.35;97618.72;5054876;28;20090;-84
2022/03/21 11:19:07;;;;;;;13.30;9.57;;;;;;;16.39;30.46;97617.53;5063057;28;20036;-84
2022/03/21 11:22:01;;;;;;;14.77;9.57;;;;;;;15.76;29.94;97618.75;5039286;28;20036;-83
2022/03/21 11:24:31;;;;;;;12.98;8.95;;;;;;;16.12;29.47;97614.13;5051042;28;20541;-84
2022/03/21 11:27:41;;;;;;;12.47;8.97;;;;;;;15.72;30.25;97618.22;5053779;28;20391;-84
2022/03/21 11:33:44;;;;;;;16.03;11.90;;;;;;;16.43;29.30;97606.44;5066897;28;20036;-83
2022/03/21 11:36:11;;;;;;;16.70;10.00;;;;;;;16.44;27.57;97597.47;5048657;28;20033;-84
2022/03/21 11:38:46;;;;;;;12.90;9.53;;;;;;;16.54;27.32;97604.47;5038964;28;20122;-84
2022/03/21 11:41:33;;;;;;;14.93;10.57;;;;;;;16.85;26.35;97594.06;5052556;28;20484;-84
2022/03/21 11:44:04;;;;;;;12.77;10.03;;;;;;;15.50;28.12;97601.03;5070424;28;20379;-84
2022/03/21 11:46:38;;;;;;;14.30;9.40;;;;;;;16.03;27.48;97607.97;5049418;28;20605;-83
2022/03/21 11:49:16;;;;;;;13.57;9.27;;;;;;;15.95;27.77;97604.44;5033633;28;20037;-84
2022/03/21 11:52:08;;;;;;;13.38;9.55;;;;;;;15.86;27.81;97603.56;5028208;28;20502;-83
2022/03/21 11:54:37;;;;;;;12.93;9.23;;;;;;;16.23;27.33;97603.22;5054286;28;20549;-84
2022/03/21 11:57:04;;;;;;;10.83;8.23;;;;;;;16.65;25.26;97602.31;5039943;28;20036;-84
2022/03/21 11:59:33;;;;;;;13.65;10.23;;;;;;;15.95;26.11;97604.44;5040706;28;20083;-83
2022/03/21 12:02:22;;;;;;;12.40;9.43;;;;;;;16.27;26.33;97593.94;5044769;28;20025;-83
2022/03/21 12:05:06;;;;;;;18.63;14.57;;;;;;;16.48;26.02;97582.03;5078061;28;20035;-84
2022/03/21 12:07:42;;;;;;;12.98;10.52;;;;;;;15.95;26.36;97592.00;5034097;28;20033;-83
2022/03/21 12:10:38;;;;;;;12.50;9.40;;;;;;;15.98;26.24;97588.19;5031418;28;20041;-83
2022/03/21 12:13:10;;;;;;;20.27;10.80;;;;;;;16.41;26.71;97592.47;5034581;28;20794;-83
2022/03/21 12:15:50;;;;;;;14.40;8.97;;;;;;;16.32;25.67;97582.00;5035381;28;20037;-83
2022/03/21 12:18:54;;;;;;;13.85;9.63;;;;;;;16.84;26.85;97579.13;5051411;28;20089;-84